KTIX/TIX METAR and TAF weather

Enter ICAO airport designator
Station Type Date Time Source
KTIX METAR 2022/06/28 15:47 UTC NOAA

KTIX 281547Z 12005KT 7SM SCT025 33/23 A3012


Station Type Date Time Source
KTIX Decoded METAR 2022/06/28 15:47 UTC NOAA

Titusville, FL, United States (KTIX) 28-31N 080-48W
Jun 28, 2022 - 11:47 AM EDT / 2022.06.28 1547 UTC
Wind: from the ESE (120 degrees) at 6 MPH (5 KT):0
Visibility: 7 mile(s):0
Sky conditions: partly cloudy
Temperature: 91 F (33 C)
Heat index: 99.1 F (37.3 C):1
Dew Point: 73 F (23 C)
Relative Humidity: 55%
Pressure (altimeter): 30.12 in. Hg (1019 hPa)
ob: KTIX 281547Z 12005KT 7SM SCT025 33/23 A3012
cycle: 16

Station Type Date Time Source
KTIX TAF 2022/06/28 12:33 UTC NOAA

TAF KTIX 281130Z 2812/2912 17003KT P6SM FEW025 SCT250
FM281400 13009KT P6SM SCT200
FM281800 12011KT P6SM FEW040 SCT200
FM290200 14003KT P6SM FEW025

Example: see airport list